Sunday, April 22, 2018, 5:49 PM EDT
Back to Local

KEWR, Newark International Airport

Location: Elizabeth, NJ, United States Lat: 40.683
Local Time: 5:49 PM EDT (21:49 GMT) Lon: -74.167
Time Zone: US/Eastern Elev: 16 ft

Show me the last for .
Show Decoded

2018-04-22 16:51 METAR KEWR 222051Z 15013KT 10SM FEW250 17/01 A3031 RMK AO2 SLP264 T01720011
                 56015 =
2018-04-22 15:51 METAR KEWR 221951Z 32011G14KT 10SM SCT250 20/03 A3032 RMK AO2 SLP266 T02000033 =
2018-04-22 14:51 METAR KEWR 221851Z 32005KT 10SM SCT250 19/02 A3034 RMK AO2 SLP273 T01890022 =
2018-04-22 13:51 METAR KEWR 221751Z 30004G18KT 10SM SCT250 19/02 A3036 RMK AO2 SLP280 T01890022
                 10189 20100 56018 =
2018-04-22 12:51 METAR KEWR 221651Z COR VRB04KT 10SM FEW250 18/01 A3037 RMK AO2 SLP283 T01780011
                 =
2018-04-22 11:51 METAR KEWR 221551Z 34009KT 10SM FEW250 17/01 A3039 RMK AO2 SLP291 T01670011 =
2018-04-22 10:51 METAR KEWR 221451Z 31008KT 10SM FEW250 16/00 A3041 RMK AO2 SLP297 T01560000
                 58001 =
2018-04-22 09:51 METAR KEWR 221351Z VRB04KT 10SM FEW250 14/M01 A3042 RMK AO2 SLP299 T01441011 =
2018-04-22 08:51 METAR KEWR 221251Z 26004KT 10SM FEW250 12/M03 A3042 RMK AO2 SLP299 T01221033 =
2018-04-22 07:51 METAR KEWR 221151Z 27003KT 10SM FEW250 10/M06 A3041 RMK AO2 SLP298 T01001056
                 10106 20056 51012 =
2018-04-22 06:51 METAR KEWR 221051Z 00000KT 10SM FEW250 08/M07 A3041 RMK AO2 SLP297 T00781067 =
2018-04-22 05:51 METAR KEWR 220951Z 35003KT 10SM FEW250 07/M08 A3039 RMK AO2 SLP288 T00671078 =
2018-04-22 04:51 METAR KEWR 220851Z 34008KT 10SM SCT250 08/M07 A3038 RMK AO2 SLP286 T00781072
                 50004 =
2018-04-22 03:51 METAR KEWR 220751Z 34007KT 10SM SCT250 09/M07 A3039 RMK AO2 SLP288 T00891067 =
2018-04-22 02:51 METAR KEWR 220651Z 34008KT 10SM SCT250 09/M07 A3038 RMK AO2 SLP286 T00941067 =
2018-04-22 01:51 METAR KEWR 220551Z 33010KT 10SM SCT250 11/M06 A3037 RMK AO2 SLP282 T01061056
                 10156 20100 51008 =
2018-04-22 00:51 METAR KEWR 220451Z 35009KT 10SM BKN250 11/M04 A3036 RMK AO2 SLP280 T01111044
                 401780028 =
2018-04-21 23:51 METAR KEWR 220351Z 33009KT 10SM BKN250 12/M03 A3035 RMK AO2 SLP277 T01221033 =
2018-04-21 22:51 METAR KEWR 220251Z 31009KT 10SM BKN250 13/M03 A3034 RMK AO2 SLP274 T01281028
                 51017 =
2018-04-21 21:51 METAR KEWR 220151Z 33011KT 10SM BKN250 14/M02 A3033 RMK AO2 SLP270 T01391022 =
2018-04-21 20:51 METAR KEWR 220051Z 32010KT 10SM BKN250 14/M01 A3031 RMK AO2 SLP263 T01441011 =
2018-04-21 19:51 METAR KEWR 212351Z 33010KT 10SM BKN250 16/M01 A3029 RMK AO2 SLP257 T01561006
                 10178 20156 53010 =
2018-04-21 18:51 METAR KEWR 212251Z 29013KT 10SM BKN250 16/00 A3026 RMK AO2 SLP248 T01610000 =
2018-04-21 17:51 METAR KEWR 212151Z 29014KT 10SM BKN250 17/01 A3026 RMK AO2 SLP245 T01670006 =

Support USWX by starting your Amazon purchase here.